Time;durP1;ratioP1;P1;durP2;ratioP2;P2;SDS_P1;SDS_P2;PMS_P1;PMS_P2;Temp;Humidity;BMP_temperature;BMP_pressure;BME280_temperature;BME280_humidity;BME280_pressure;Samples;Min_cycle;Max_cycle;Signal;HPM_P1;HPM_P2
2023/03/30 00:00:56;;;;;;;24.53;13.10;;;-2.20;99.90;;;;;;4161014;28;20718;-66
2023/03/30 00:03:01;;;;;;;25.93;13.40;;;-2.30;99.90;;;;;;4160945;28;20271;-65
2023/03/30 00:05:04;;;;;;;25.27;13.07;;;-2.30;99.90;;;;;;4145380;28;20325;-73
2023/03/30 00:07:05;;;;;;;33.50;13.47;;;-2.30;99.90;;;;;;4145283;28;20275;-64
2023/03/30 00:09:06;;;;;;;28.27;13.37;;;-2.30;99.90;;;;;;4147515;28;20275;-71
2023/03/30 00:11:14;;;;;;;25.97;13.57;;;-2.30;99.90;;;;;;4139842;28;20683;-64
2023/03/30 00:13:15;;;;;;;30.53;13.73;;;-2.40;99.90;;;;;;4143846;28;20275;-64
2023/03/30 00:15:19;;;;;;;27.53;12.43;;;-2.40;99.90;;;;;;4147817;28;20279;-72
2023/03/30 00:17:20;;;;;;;35.23;14.77;;;-2.40;99.90;;;;;;4146244;28;20274;-65
2023/03/30 00:19:21;;;;;;;28.07;13.23;;;-2.40;99.90;;;;;;4145102;28;20325;-64
2023/03/30 00:21:23;;;;;;;27.10;12.20;;;-2.50;99.90;;;;;;4144553;28;20783;-65
2023/03/30 00:23:24;;;;;;;32.10;13.73;;;-2.50;99.90;;;;;;4144888;28;20252;-66
2023/03/30 00:25:25;;;;;;;28.70;13.23;;;-2.60;99.90;;;;;;4152838;28;20695;-64
2023/03/30 00:27:26;;;;;;;23.43;11.97;;;-2.70;99.90;;;;;;4160519;28;20316;-65
2023/03/30 00:29:27;;;;;;;28.37;13.17;;;-2.70;99.90;;;;;;4161116;28;20735;-67
2023/03/30 00:31:28;;;;;;;25.37;12.50;;;-2.70;99.90;;;;;;4159839;28;20349;-65
2023/03/30 00:33:30;;;;;;;26.37;12.50;;;-2.70;99.90;;;;;;4161140;28;20275;-65
2023/03/30 00:35:32;;;;;;;30.90;12.60;;;-2.70;99.90;;;;;;4160722;28;20313;-65
2023/03/30 00:37:36;;;;;;;24.00;11.57;;;-2.80;99.90;;;;;;4147440;28;20283;-65
2023/03/30 00:39:37;;;;;;;25.17;11.03;;;-2.90;99.90;;;;;;4145209;28;20279;-63
2023/03/30 00:41:38;;;;;;;23.10;11.27;;;-2.90;99.90;;;;;;4144864;28;20354;-64
2023/03/30 00:44:21;;;;;;;26.07;10.83;;;-3.00;99.90;;;;;;4144797;28;20306;-64
2023/03/30 00:46:23;;;;;;;24.70;10.87;;;-3.00;99.90;;;;;;4109878;28;20350;-64
2023/03/30 00:48:28;;;;;;;22.63;11.03;;;-3.10;99.90;;;;;;4161043;28;20258;-65
2023/03/30 00:50:52;;;;;;;21.60;10.67;;;-3.10;99.90;;;;;;4161176;28;20310;-64
2023/03/30 00:52:56;;;;;;;19.87;10.27;;;-3.10;99.90;;;;;;4160553;28;20259;-65
2023/03/30 00:54:57;;;;;;;23.87;10.50;;;-3.10;99.90;;;;;;4161180;28;20325;-64
2023/03/30 00:56:58;;;;;;;26.37;11.83;;;-3.20;99.90;;;;;;4160783;28;20271;-64
2023/03/30 00:59:01;;;;;;;25.67;10.73;;;-3.20;99.90;;;;;;4159532;28;20274;-64
2023/03/30 01:01:06;;;;;;;27.53;11.83;;;-3.20;99.90;;;;;;4160843;28;20689;-66
2023/03/30 01:03:29;;;;;;;22.43;11.23;;;-3.20;99.90;;;;;;4159509;28;20286;-64
2023/03/30 01:05:31;;;;;;;20.40;9.87;;;-3.20;99.90;;;;;;4160625;28;20366;-64
2023/03/30 01:07:32;;;;;;;20.23;9.73;;;-3.30;99.90;;;;;;4160388;28;20290;-64
2023/03/30 01:09:33;;;;;;;23.03;10.23;;;-3.30;99.90;;;;;;4145735;28;20276;-65
2023/03/30 01:11:35;;;;;;;20.43;10.30;;;-3.40;99.90;;;;;;4145586;28;20621;-64
2023/03/30 01:13:44;;;;;;;21.73;9.87;;;-3.50;99.90;;;;;;4143951;28;20318;-64
2023/03/30 01:16:08;;;;;;;24.23;10.37;;;-3.50;99.90;;;;;;4144397;28;20676;-65
2023/03/30 01:18:24;;;;;;;27.37;11.60;;;-3.50;99.90;;;;;;4136017;28;20767;-64
2023/03/30 01:20:34;;;;;;;25.77;12.20;;;-3.40;99.90;;;;;;4146391;28;20349;-65
2023/03/30 01:22:54;;;;;;;29.83;12.33;;;-3.50;99.90;;;;;;4144327;28;20337;-69
2023/03/30 01:25:14;;;;;;;27.63;13.00;;;-3.50;99.90;;;;;;4144244;28;20256;-64
2023/03/30 01:27:45;;;;;;;24.37;11.57;;;-3.50;99.90;;;;;;4144315;28;20299;-64
2023/03/30 01:29:56;;;;;;;;;;;-3.50;99.90;;;;;;4148134;28;20271;-65
2023/03/30 01:32:22;;;;;;;19.77;10.65;;;-3.50;99.90;;;;;;4160168;28;19909;-64
2023/03/30 01:35:14;;;;;;;27.77;10.60;;;-3.50;99.90;;;;;;4160549;28;20432;-64
2023/03/30 01:37:49;;;;;;;32.60;11.60;;;-3.60;99.90;;;;;;4114520;28;20290;-66
2023/03/30 01:40:11;;;;;;;23.17;11.30;;;-3.60;99.90;;;;;;4159453;28;20286;-64
2023/03/30 01:42:35;;;;;;;20.33;10.10;;;-3.60;99.90;;;;;;4160425;28;20701;-65
2023/03/30 01:44:51;;;;;;;25.53;10.80;;;-3.80;99.90;;;;;;4157634;28;20270;-64
2023/03/30 01:47:10;;;;;;;22.33;10.00;;;-3.80;99.90;;;;;;4160439;28;20332;-74
2023/03/30 01:49:42;;;;;;;20.80;10.65;;;-3.80;99.90;;;;;;4160238;28;20274;-68
2023/03/30 01:52:11;;;;;;;24.73;10.47;;;-3.90;99.90;;;;;;4160339;28;20465;-65
2023/03/30 01:54:24;;;;;;;20.73;10.23;;;-3.90;99.90;;;;;;4159847;28;20308;-65
2023/03/30 01:56:30;;;;;;;24.35;11.23;;;-3.90;99.90;;;;;;4151188;28;20271;-65
2023/03/30 01:58:34;;;;;;;24.47;11.20;;;-3.80;99.90;;;;;;4143606;28;20021;-70
2023/03/30 02:00:39;;;;;;;19.87;9.87;;;-3.90;99.90;;;;;;4144056;28;20367;-73
2023/03/30 02:02:45;;;;;;;25.37;10.87;;;-3.90;99.90;;;;;;4143417;28;20325;-65
2023/03/30 02:04:47;;;;;;;23.70;9.87;;;-3.90;99.90;;;;;;4143740;28;20337;-76
2023/03/30 02:06:55;;;;;;;22.43;11.20;;;-3.90;99.90;;;;;;4143274;28;20263;-65
2023/03/30 02:08:59;;;;;;;17.10;9.13;;;-3.90;99.90;;;;;;4150273;28;20279;-65
2023/03/30 02:11:02;;;;;;;24.73;11.10;;;-3.90;99.90;;;;;;4150362;28;20348;-65
2023/03/30 02:13:05;;;;;;;22.95;10.48;;;-4.00;99.90;;;;;;4147904;28;20326;-77
2023/03/30 02:15:09;;;;;;;22.93;10.40;;;-4.00;99.90;;;;;;4155973;28;20022;-76
2023/03/30 02:17:17;;;;;;;23.40;10.52;;;-4.00;99.90;;;;;;4159083;28;20313;-77
2023/03/30 02:19:18;;;;;;;22.98;9.13;;;-4.00;99.90;;;;;;4155213;28;20483;-65
2023/03/30 02:21:20;;;;;;;22.40;10.20;;;-4.00;99.90;;;;;;4145225;28;20498;-64
2023/03/30 02:23:23;;;;;;;23.15;10.60;;;-4.10;99.90;;;;;;4143088;28;20275;-73
2023/03/30 02:25:24;;;;;;;25.23;11.45;;;-4.10;99.90;;;;;;4144635;28;20030;-76
2023/03/30 02:27:26;;;;;;;20.93;10.43;;;-4.10;99.90;;;;;;4150829;28;20037;-70
2023/03/30 02:29:28;;;;;;;24.70;11.52;;;-4.10;99.90;;;;;;4155562;28;20621;-72
2023/03/30 02:31:29;;;;;;;26.80;10.48;;;-4.10;99.90;;;;;;4158074;28;20026;-64
2023/03/30 02:33:57;;;;;;;21.80;10.10;;;-4.10;99.90;;;;;;4159880;28;20068;-66
2023/03/30 02:36:23;;;;;;;24.30;10.05;;;-4.10;99.90;;;;;;4127551;28;20270;-75
2023/03/30 02:39:09;;;;;;;18.10;9.60;;;-4.10;99.90;;;;;;4159861;28;20033;-77
2023/03/30 02:41:49;;;;;;;17.42;8.50;;;-4.10;99.90;;;;;;4093378;29;20047;-65
2023/03/30 02:44:18;;;;;;;24.25;11.05;;;-4.00;99.90;;;;;;4088371;29;20028;-77
2023/03/30 02:46:22;;;;;;;21.27;10.90;;;-4.10;99.90;;;;;;4112660;28;20564;-75
2023/03/30 02:48:52;;;;;;;20.20;9.45;;;-4.10;99.90;;;;;;4143456;28;20268;-69
2023/03/30 02:51:17;;;;;;;21.90;9.38;;;-4.20;99.90;;;;;;4143442;28;20030;-71
2023/03/30 02:53:31;;;;;;;22.08;9.60;;;-4.20;99.90;;;;;;4143164;28;20038;-68
2023/03/30 02:55:56;;;;;;;20.15;11.32;;;-4.20;99.90;;;;;;4142260;28;20042;-66
2023/03/30 02:58:14;;;;;;;24.10;10.67;;;-4.20;99.90;;;;;;4155096;28;20033;-66
2023/03/30 03:00:23;;;;;;;23.15;11.45;;;-4.20;99.90;;;;;;4159259;28;20286;-73
2023/03/30 03:02:48;;;;;;;25.55;10.57;;;-4.20;99.90;;;;;;4158989;28;20448;-74
2023/03/30 03:04:52;;;;;;;26.27;10.65;;;-4.20;99.90;;;;;;4161842;28;20171;-70
2023/03/30 03:06:54;;;;;;;22.00;11.07;;;-4.20;99.90;;;;;;4162568;28;20087;-65
2023/03/30 03:08:56;;;;;;;24.10;10.63;;;-4.20;99.90;;;;;;4162830;28;20026;-66
2023/03/30 03:10:57;;;;;;;31.17;11.65;;;-4.20;99.90;;;;;;4161054;28;20041;-69
2023/03/30 03:12:58;;;;;;;24.23;11.57;;;-4.20;99.90;;;;;;4160744;28;20543;-67
2023/03/30 03:15:00;;;;;;;20.42;10.15;;;-4.20;99.90;;;;;;4162452;28;20107;-72
2023/03/30 03:17:03;;;;;;;24.58;11.45;;;-4.10;99.90;;;;;;4162127;28;20563;-66
2023/03/30 03:19:05;;;;;;;28.27;11.10;;;-4.10;99.90;;;;;;4156863;28;20089;-73
2023/03/30 03:21:08;;;;;;;20.20;10.13;;;-4.10;99.90;;;;;;4145813;28;20030;-76
2023/03/30 03:23:09;;;;;;;29.27;11.18;;;-4.10;99.90;;;;;;4144799;28;20490;-72
2023/03/30 03:25:10;;;;;;;23.55;10.55;;;-4.10;99.90;;;;;;4145773;28;20030;-67
2023/03/30 03:27:11;;;;;;;20.52;9.75;;;-4.10;99.90;;;;;;4146243;28;20478;-77
2023/03/30 03:29:13;;;;;;;23.60;10.27;;;-4.10;99.90;;;;;;4145600;28;20033;-75
2023/03/30 03:31:14;;;;;;;16.98;8.98;;;-4.00;99.90;;;;;;4145746;28;20065;-66
2023/03/30 03:33:15;;;;;;;25.58;10.30;;;-4.00;99.90;;;;;;4149055;28;20029;-67
2023/03/30 03:35:16;;;;;;;28.65;12.07;;;-4.10;99.90;;;;;;4147838;28;20034;-66
2023/03/30 03:37:18;;;;;;;37.50;13.82;;;-4.00;99.90;;;;;;4148563;28;20087;-76
2023/03/30 03:39:20;;;;;;;29.38;12.90;;;-4.00;99.90;;;;;;4146124;28;20034;-66
2023/03/30 03:41:21;;;;;;;38.92;14.13;;;-4.00;99.90;;;;;;4156004;28;20456;-65
2023/03/30 03:43:23;;;;;;;37.38;15.05;;;-4.00;99.90;;;;;;4160351;28;20037;-67
2023/03/30 03:45:24;;;;;;;50.77;16.40;;;-4.00;99.90;;;;;;4160532;28;20071;-75
2023/03/30 03:47:25;;;;;;;34.67;15.27;;;-4.00;99.90;;;;;;4162058;28;20312;-73
2023/03/30 03:49:26;;;;;;;39.50;15.20;;;-4.00;99.90;;;;;;4161832;28;20087;-73
2023/03/30 03:51:28;;;;;;;34.63;14.20;;;-4.00;99.90;;;;;;4161802;28;20432;-68
2023/03/30 03:53:29;;;;;;;34.72;14.00;;;-4.00;99.90;;;;;;4161702;28;20033;-69
2023/03/30 03:55:33;;;;;;;38.37;15.33;;;-4.00;99.90;;;;;;4161717;28;20103;-75
2023/03/30 03:57:35;;;;;;;35.83;14.57;;;-4.00;99.90;;;;;;4161984;28;20267;-71
2023/03/30 03:59:36;;;;;;;33.50;14.23;;;-4.00;99.90;;;;;;4161164;28;20045;-70
2023/03/30 04:01:37;;;;;;;39.78;15.65;;;-4.00;99.90;;;;;;4150466;28;20315;-70
2023/03/30 04:03:40;;;;;;;40.93;14.40;;;-4.10;99.90;;;;;;4148864;28;20092;-72
2023/03/30 04:05:41;;;;;;;36.20;13.50;;;-4.10;99.90;;;;;;4151185;28;20302;-76
2023/03/30 04:07:45;;;;;;;26.02;11.93;;;-4.10;99.90;;;;;;4143473;28;20758;-75
2023/03/30 04:09:46;;;;;;;28.80;11.60;;;-4.10;99.90;;;;;;4145227;28;20049;-73
2023/03/30 04:11:48;;;;;;;28.73;10.97;;;-4.10;99.90;;;;;;4145137;28;20263;-67
2023/03/30 04:13:49;;;;;;;21.42;10.10;;;-4.10;99.90;;;;;;4145251;28;20306;-66
2023/03/30 04:15:50;;;;;;;25.42;10.85;;;-4.10;99.90;;;;;;4145084;28;20026;-70
2023/03/30 04:17:56;;;;;;;27.40;11.80;;;-4.10;99.90;;;;;;4144369;28;20113;-68
2023/03/30 04:20:04;;;;;;;24.45;10.80;;;-4.10;99.90;;;;;;4144490;28;20467;-74
2023/03/30 04:22:05;;;;;;;28.40;10.30;;;-4.10;99.90;;;;;;4160020;28;20061;-68
2023/03/30 04:24:10;;;;;;;29.17;11.43;;;-4.10;99.90;;;;;;4161009;28;20092;-72
2023/03/30 04:26:12;;;;;;;20.98;10.85;;;-4.00;99.90;;;;;;4161225;28;20087;-71
2023/03/30 04:28:13;;;;;;;24.33;11.40;;;-4.00;99.90;;;;;;4149245;28;20025;-67
2023/03/30 04:30:15;;;;;;;25.13;11.33;;;-3.70;99.90;;;;;;4133914;28;20326;-69
2023/03/30 04:32:19;;;;;;;23.93;12.73;;;-3.30;99.90;;;;;;4156436;28;20263;-63
2023/03/30 04:34:20;;;;;;;28.20;11.50;;;-2.90;99.90;;;;;;4140178;28;21993;-74
2023/03/30 04:36:22;;;;;;;24.63;9.90;;;-2.50;99.90;;;;;;4132493;28;20813;-65
2023/03/30 04:38:23;;;;;;;21.10;10.70;;;-2.00;99.90;;;;;;4144404;28;20279;-64
2023/03/30 04:40:24;;;;;;;25.03;10.33;;;-1.60;99.90;;;;;;4157499;28;20678;-64
2023/03/30 04:42:33;;;;;;;22.60;9.90;;;-1.20;99.90;;;;;;4157715;28;20388;-63
2023/03/30 04:44:34;;;;;;;27.93;9.27;;;-0.90;99.90;;;;;;4161106;28;20807;-70
2023/03/30 04:46:35;;;;;;;19.33;8.17;;;-0.50;99.90;;;;;;4160758;28;20266;-65
2023/03/30 04:48:36;;;;;;;15.47;8.50;;;-0.10;99.90;;;;;;4161011;28;20766;-69
2023/03/30 04:50:38;;;;;;;17.33;9.33;;;0.20;99.90;;;;;;4160772;28;20317;-69
2023/03/30 04:52:39;;;;;;;17.90;8.60;;;0.60;99.90;;;;;;4159080;28;20796;-65
2023/03/30 04:54:40;;;;;;;15.70;8.30;;;0.90;99.90;;;;;;4146391;28;20295;-69
2023/03/30 04:56:41;;;;;;;18.10;8.83;;;1.20;99.90;;;;;;4154124;28;20324;-72
2023/03/30 04:58:42;;;;;;;20.60;8.47;;;1.60;99.90;;;;;;4153424;28;20321;-63
2023/03/30 05:00:43;;;;;;;35.03;16.40;;;2.10;99.90;;;;;;4145382;28;20259;-67
2023/03/30 05:02:44;;;;;;;24.23;12.40;;;2.40;99.90;;;;;;4149919;28;20352;-67
2023/03/30 05:04:45;;;;;;;27.10;10.80;;;2.70;99.90;;;;;;4155545;28;20795;-64
2023/03/30 05:06:48;;;;;;;22.93;11.37;;;3.00;99.90;;;;;;4159830;28;20267;-70
2023/03/30 05:08:49;;;;;;;26.37;12.50;;;3.30;99.90;;;;;;4160329;28;20297;-63
2023/03/30 05:10:50;;;;;;;29.60;12.30;;;3.70;99.90;;;;;;4161272;28;20270;-68
2023/03/30 05:12:55;;;;;;;34.77;12.70;;;4.30;99.90;;;;;;4159902;28;20313;-63
2023/03/30 05:14:56;;;;;;;35.37;13.67;;;4.90;99.70;;;;;;4160934;28;20642;-63
2023/03/30 05:16:58;;;;;;;29.97;12.90;;;5.30;99.10;;;;;;4159690;28;20903;-64
2023/03/30 05:18:59;;;;;;;30.00;13.17;;;5.90;98.10;;;;;;4160444;28;20267;-68
2023/03/30 05:21:00;;;;;;;32.70;13.53;;;6.30;96.90;;;;;;4159745;28;20099;-64
2023/03/30 05:23:02;;;;;;;27.50;13.00;;;6.80;96.00;;;;;;4160044;28;20049;-63
2023/03/30 05:25:04;;;;;;;24.13;12.37;;;7.20;95.20;;;;;;4160424;28;20033;-62
2023/03/30 05:27:05;;;;;;;24.13;11.23;;;7.60;94.10;;;;;;4159881;28;20091;-63
2023/03/30 05:29:07;;;;;;;29.33;12.03;;;8.00;93.50;;;;;;4160158;28;20507;-62
2023/03/30 05:31:08;;;;;;;28.93;11.97;;;8.40;92.40;;;;;;4160189;28;20420;-63
2023/03/30 05:33:09;;;;;;;22.57;11.40;;;8.60;91.10;;;;;;4160141;28;20410;-62
2023/03/30 05:35:11;;;;;;;22.03;11.97;;;8.50;89.60;;;;;;4159787;28;20079;-62
2023/03/30 05:37:12;;;;;;;21.93;10.53;;;8.30;87.40;;;;;;4160171;28;20095;-69
2023/03/30 05:39:14;;;;;;;24.80;11.40;;;7.90;86.90;;;;;;4159782;28;20460;-63
2023/03/30 05:41:16;;;;;;;23.43;11.50;;;7.80;87.60;;;;;;4160541;28;20692;-62
2023/03/30 05:43:17;;;;;;;24.00;10.93;;;7.70;87.70;;;;;;4159602;28;20084;-61
2023/03/30 05:45:18;;;;;;;28.80;11.10;;;8.20;88.20;;;;;;4160294;28;20083;-63
2023/03/30 05:47:20;;;;;;;26.63;11.13;;;8.40;85.00;;;;;;4159588;28;20029;-67
2023/03/30 05:49:22;;;;;;;19.87;10.30;;;8.60;84.90;;;;;;4159606;28;20037;-64
2023/03/30 05:51:23;;;;;;;27.40;11.13;;;8.60;84.20;;;;;;4159670;28;20021;-69
2023/03/30 05:53:24;;;;;;;25.50;12.03;;;8.70;83.50;;;;;;4159551;28;20107;-69
2023/03/30 05:55:26;;;;;;;29.33;12.77;;;8.70;81.50;;;;;;4159940;28;20068;-63
2023/03/30 05:57:27;;;;;;;30.50;15.93;;;8.40;82.60;;;;;;4159801;28;20087;-67
2023/03/30 05:59:28;;;;;;;34.60;14.13;;;8.70;82.00;;;;;;4160240;28;20475;-70
2023/03/30 06:01:30;;;;;;;30.70;14.00;;;9.20;81.90;;;;;;4159729;28;20130;-69
2023/03/30 06:03:31;;;;;;;32.37;13.67;;;9.10;79.60;;;;;;4127448;28;20039;-62
2023/03/30 06:05:35;;;;;;;37.00;12.57;;;8.50;79.00;;;;;;4125538;28;20520;-66
2023/03/30 06:07:36;;;;;;;29.20;14.13;;;8.50;79.30;;;;;;4127097;28;20441;-65
2023/03/30 06:09:37;;;;;;;31.60;13.67;;;8.40;79.30;;;;;;4125388;28;20077;-62
2023/03/30 06:11:38;;;;;;;40.93;14.70;;;8.10;78.50;;;;;;4125768;28;20073;-66
2023/03/30 06:13:40;;;;;;;34.03;13.73;;;7.90;79.40;;;;;;4124880;28;20406;-67
2023/03/30 06:15:43;;;;;;;27.63;13.90;;;7.40;79.40;;;;;;4127667;28;20414;-76
2023/03/30 06:17:45;;;;;;;24.67;12.23;;;7.50;79.50;;;;;;4127019;28;20474;-73
2023/03/30 06:19:47;;;;;;;29.20;13.17;;;7.20;79.50;;;;;;4127087;28;20089;-64
2023/03/30 06:21:48;;;;;;;28.33;13.53;;;6.80;79.20;;;;;;4126830;28;20034;-62
2023/03/30 06:23:49;;;;;;;27.63;11.57;;;6.50;79.70;;;;;;4127358;28;20093;-67
2023/03/30 06:25:54;;;;;;;27.87;13.07;;;6.60;80.10;;;;;;4127310;28;20034;-64
2023/03/30 06:27:56;;;;;;;24.70;12.47;;;6.70;79.80;;;;;;4127202;28;20072;-68
2023/03/30 06:29:57;;;;;;;35.23;11.90;;;7.20;79.40;;;;;;4127185;28;20039;-63
2023/03/30 06:31:59;;;;;;;28.27;10.70;;;7.20;78.80;;;;;;4130390;28;20088;-63
2023/03/30 06:34:00;;;;;;;22.93;11.27;;;7.40;78.70;;;;;;4130677;28;20069;-68
2023/03/30 06:36:02;;;;;;;20.87;10.97;;;7.40;78.00;;;;;;4130530;28;20038;-65
2023/03/30 06:38:03;;;;;;;22.63;10.67;;;6.90;78.00;;;;;;4129020;28;20042;-63
2023/03/30 06:40:12;;;;;;;28.50;10.73;;;7.00;79.00;;;;;;4130167;28;20053;-64
2023/03/30 06:42:13;;;;;;;23.90;10.10;;;7.30;78.70;;;;;;4130525;28;20046;-69
2023/03/30 06:44:14;;;;;;;24.93;11.83;;;7.10;77.90;;;;;;4129850;28;20034;-65
2023/03/30 06:46:15;;;;;;;29.93;11.43;;;7.40;78.20;;;;;;4130653;28;20646;-66
2023/03/30 06:48:18;;;;;;;20.50;9.63;;;7.50;77.10;;;;;;4129893;28;20077;-68
2023/03/30 06:50:19;;;;;;;27.87;10.57;;;7.80;77.20;;;;;;4129994;28;20113;-71
2023/03/30 06:52:21;;;;;;;28.23;10.30;;;7.80;76.00;;;;;;4129955;28;20078;-71
2023/03/30 06:54:23;;;;;;;19.37;9.10;;;7.80;76.10;;;;;;4130550;28;20038;-69
2023/03/30 06:56:25;;;;;;;21.27;10.37;;;7.40;76.10;;;;;;4130005;28;20034;-70
2023/03/30 06:58:27;;;;;;;19.63;10.70;;;7.40;76.10;;;;;;4129845;28;20026;-63
2023/03/30 07:00:28;;;;;;;32.33;10.17;;;7.60;76.80;;;;;;4130280;28;20455;-66
2023/03/30 07:02:29;;;;;;;19.67;9.43;;;7.60;75.00;;;;;;4136086;28;20042;-68
2023/03/30 07:04:30;;;;;;;23.60;9.30;;;7.50;75.50;;;;;;4145632;28;20560;-63
2023/03/30 07:06:32;;;;;;;26.90;12.17;;;7.60;75.30;;;;;;4145587;28;20390;-64
2023/03/30 07:08:34;;;;;;;20.83;9.17;;;7.40;75.00;;;;;;4145605;28;20449;-64
2023/03/30 07:10:35;;;;;;;16.23;8.73;;;7.10;74.80;;;;;;4145523;28;20561;-65
2023/03/30 07:12:38;;;;;;;10.43;6.27;;;6.80;74.70;;;;;;4146064;28;20084;-63
2023/03/30 07:14:39;;;;;;;13.97;6.07;;;6.60;74.20;;;;;;4144889;28;20034;-65
2023/03/30 07:16:40;;;;;;;15.40;7.87;;;6.40;75.40;;;;;;4145695;28;20095;-69
2023/03/30 07:18:41;;;;;;;15.17;7.47;;;6.10;75.60;;;;;;4145402;28;20030;-66
2023/03/30 07:20:44;;;;;;;22.63;10.20;;;6.00;76.00;;;;;;4145964;28;20076;-67
2023/03/30 07:22:45;;;;;;;16.63;8.47;;;6.10;76.30;;;;;;4145397;28;20033;-60
2023/03/30 07:24:46;;;;;;;15.17;7.53;;;5.70;76.40;;;;;;4144193;28;20038;-66
2023/03/30 07:26:47;;;;;;;14.40;7.20;;;5.80;76.90;;;;;;4144914;28;20092;-65
2023/03/30 07:28:48;;;;;;;13.27;7.53;;;5.80;76.10;;;;;;4145166;28;20093;-61
2023/03/30 07:30:50;;;;;;;12.73;6.90;;;5.60;77.20;;;;;;4145888;28;20061;-66
2023/03/30 07:32:51;;;;;;;12.90;6.20;;;5.50;77.70;;;;;;4145289;28;20034;-69
2023/03/30 07:34:52;;;;;;;10.53;6.07;;;5.50;78.60;;;;;;4145241;28;20555;-69
2023/03/30 07:36:53;;;;;;;12.67;6.40;;;5.40;79.20;;;;;;4145181;28;20042;-67
2023/03/30 07:38:57;;;;;;;10.70;6.77;;;5.20;79.70;;;;;;4144850;28;20030;-65
2023/03/30 07:40:58;;;;;;;16.57;6.20;;;5.20;80.40;;;;;;4144923;28;20712;-64
2023/03/30 07:42:59;;;;;;;10.53;5.40;;;5.10;80.60;;;;;;4145140;28;20349;-65
2023/03/30 07:45:01;;;;;;;11.07;5.63;;;5.10;80.80;;;;;;4145238;28;20275;-70
2023/03/30 07:47:05;;;;;;;9.63;5.43;;;5.10;80.80;;;;;;4145009;28;20629;-67
2023/03/30 07:49:06;;;;;;;15.43;5.90;;;5.10;80.80;;;;;;4145096;28;20267;-71
2023/03/30 07:51:12;;;;;;;9.47;5.60;;;5.20;81.20;;;;;;4145255;28;20268;-66
2023/03/30 07:53:13;;;;;;;12.47;6.83;;;5.30;81.40;;;;;;4144631;28;20271;-68
2023/03/30 07:55:14;;;;;;;14.90;8.30;;;5.50;81.70;;;;;;4144935;28;20280;-68
2023/03/30 07:57:16;;;;;;;17.60;7.57;;;5.50;82.20;;;;;;4144173;28;20271;-71
2023/03/30 07:59:18;;;;;;;17.80;8.30;;;5.50;82.90;;;;;;4145458;28;20321;-69
2023/03/30 08:01:19;;;;;;;11.97;7.20;;;5.60;83.30;;;;;;4144992;28;20275;-70
2023/03/30 08:03:21;;;;;;;13.03;6.57;;;5.80;82.70;;;;;;4144641;28;20849;-61
2023/03/30 08:05:22;;;;;;;13.03;7.33;;;6.00;82.80;;;;;;4144254;28;20925;-70
2023/03/30 08:07:24;;;;;;;10.73;6.37;;;6.00;82.90;;;;;;4144110;28;20287;-69
2023/03/30 08:09:26;;;;;;;11.03;5.70;;;6.10;82.90;;;;;;4144778;28;20322;-69
2023/03/30 08:11:27;;;;;;;9.90;5.90;;;6.20;82.60;;;;;;4144380;28;20050;-68
2023/03/30 08:13:28;;;;;;;8.00;5.37;;;6.50;82.00;;;;;;4144205;28;20326;-62
2023/03/30 08:15:29;;;;;;;7.03;4.60;;;6.60;81.50;;;;;;4144803;28;20084;-62
2023/03/30 08:17:31;;;;;;;7.13;4.10;;;6.70;81.10;;;;;;4144977;28;20379;-61
2023/03/30 08:19:32;;;;;;;6.43;4.27;;;6.70;80.70;;;;;;4144724;28;20042;-63
2023/03/30 08:21:33;;;;;;;6.40;4.03;;;6.80;80.80;;;;;;4144462;28;20736;-68
2023/03/30 08:23:34;;;;;;;7.83;3.77;;;7.00;80.10;;;;;;4144235;28;20068;-69
2023/03/30 08:25:36;;;;;;;6.17;4.93;;;7.20;78.90;;;;;;4144874;28;20034;-70
2023/03/30 08:27:37;;;;;;;6.17;3.80;;;7.20;77.80;;;;;;4143756;28;20038;-68
2023/03/30 08:29:39;;;;;;;12.30;4.33;;;7.40;77.80;;;;;;4144757;28;20457;-62
2023/03/30 08:31:40;;;;;;;7.80;3.93;;;7.60;77.00;;;;;;4143883;28;20054;-65
2023/03/30 08:33:41;;;;;;;7.03;3.73;;;7.60;76.40;;;;;;4144474;28;20406;-63
2023/03/30 08:35:49;;;;;;;6.87;3.40;;;7.80;76.00;;;;;;4144365;28;20529;-63
2023/03/30 08:37:51;;;;;;;10.87;3.37;;;7.90;74.30;;;;;;4144390;28;20050;-70
2023/03/30 08:39:52;;;;;;;8.13;3.47;;;7.80;74.00;;;;;;4144109;28;20792;-70
2023/03/30 08:42:04;;;;;;;6.00;2.20;;;8.00;73.80;;;;;;4143941;28;20084;-66
2023/03/30 08:44:38;;;;;;;2.20;1.87;;;8.30;70.60;;;;;;4143842;28;20057;-62
2023/03/30 08:46:41;;;;;;;3.27;2.00;;;8.40;67.10;;;;;;4144153;28;20491;-69
2023/03/30 08:48:43;;;;;;;3.53;2.67;;;8.30;69.40;;;;;;4144165;28;20076;-64
2023/03/30 08:51:01;;;;;;;4.97;2.33;;;8.40;68.80;;;;;;4143933;28;20041;-65
2023/03/30 08:53:05;;;;;;;3.20;2.27;;;8.50;67.70;;;;;;4143155;28;20049;-64
2023/03/30 08:55:17;;;;;;;3.70;2.33;;;8.60;67.50;;;;;;4143835;28;20034;-63
2023/03/30 08:57:39;;;;;;;4.93;2.10;;;8.60;66.80;;;;;;4143649;28;20033;-66
2023/03/30 09:00:14;;;;;;;3.57;1.80;;;8.60;65.90;;;;;;4143929;28;20088;-71
2023/03/30 09:02:30;;;;;;;3.97;2.50;;;8.60;65.70;;;;;;4136985;28;20038;-68
2023/03/30 09:05:01;;;;;;;6.63;2.20;;;8.70;65.50;;;;;;4143587;28;20100;-66
2023/03/30 09:07:15;;;;;;;5.03;2.30;;;8.70;64.30;;;;;;4142727;28;20463;-68
2023/03/30 09:09:20;;;;;;;4.90;2.53;;;8.60;65.00;;;;;;4143865;28;20029;-66
2023/03/30 09:11:32;;;;;;;3.47;2.13;;;8.70;64.60;;;;;;4143765;28;20029;-65
2023/03/30 09:13:36;;;;;;;2.97;1.60;;;8.70;64.00;;;;;;4143404;28;20041;-70
2023/03/30 09:16:15;;;;;;;3.37;1.87;;;8.60;63.70;;;;;;4142799;28;20046;-68
2023/03/30 09:18:34;;;;;;;5.03;1.80;;;8.70;63.60;;;;;;4143421;28;20104;-63
2023/03/30 09:20:37;;;;;;;5.67;1.83;;;8.70;63.50;;;;;;4143675;28;20076;-62
2023/03/30 09:22:41;;;;;;;3.03;1.70;;;9.00;64.70;;;;;;4142812;28;20332;-64
2023/03/30 09:24:42;;;;;;;2.97;1.70;;;9.40;64.50;;;;;;4143019;28;20076;-66
2023/03/30 09:27:11;;;;;;;3.13;1.93;;;9.60;63.40;;;;;;4142649;28;20092;-63
2023/03/30 09:29:25;;;;;;;2.47;1.70;;;9.60;61.50;;;;;;4143363;28;20034;-66
2023/03/30 09:31:34;;;;;;;2.90;1.77;;;9.50;61.90;;;;;;4143702;28;20029;-65
2023/03/30 09:34:03;;;;;;;3.43;2.10;;;9.50;61.90;;;;;;4143340;28;20033;-66
2023/03/30 09:36:16;;;;;;;2.67;1.80;;;9.60;60.70;;;;;;4143158;28;20321;-62
2023/03/30 09:38:20;;;;;;;5.57;2.20;;;9.70;61.10;;;;;;4143032;28;20733;-66
2023/03/30 09:41:06;;;;;;;4.97;2.30;;;9.70;60.00;;;;;;4143060;28;20270;-66
2023/03/30 09:43:15;;;;;;;2.23;1.40;;;9.80;60.00;;;;;;4134858;28;20103;-69
2023/03/30 09:45:21;;;;;;;3.03;1.97;;;9.70;59.10;;;;;;4143044;28;20595;-61
2023/03/30 09:47:37;;;;;;;3.70;1.90;;;9.70;59.00;;;;;;4143678;28;20030;-63
2023/03/30 09:49:38;;;;;;;3.43;2.20;;;9.60;58.50;;;;;;4143148;28;20638;-71
2023/03/30 09:52:01;;;;;;;3.70;1.80;;;9.80;60.00;;;;;;4142791;28;20108;-71
2023/03/30 09:54:05;;;;;;;5.07;2.27;;;10.00;59.10;;;;;;4142754;28;20470;-64
2023/03/30 09:56:10;;;;;;;3.67;2.10;;;9.90;58.40;;;;;;4143616;28;20092;-63
2023/03/30 09:58:19;;;;;;;4.63;2.50;;;9.70;58.40;;;;;;4142476;28;20080;-64
2023/03/30 10:00:30;;;;;;;3.30;2.23;;;9.60;58.20;;;;;;4143884;28;20364;-63
2023/03/30 10:02:32;;;;;;;3.13;1.90;;;9.50;58.10;;;;;;4142920;28;20080;-62
2023/03/30 10:04:52;;;;;;;4.23;1.70;;;9.30;58.30;;;;;;4142838;28;20589;-62
2023/03/30 10:06:53;;;;;;;2.30;1.87;;;9.30;58.40;;;;;;4142609;28;20088;-62
2023/03/30 10:08:55;;;;;;;4.10;1.80;;;9.30;58.80;;;;;;4142661;28;20442;-70
2023/03/30 10:10:58;;;;;;;5.97;1.97;;;9.40;58.20;;;;;;4142766;28;20054;-62
2023/03/30 10:13:15;;;;;;;4.10;1.90;;;9.40;57.70;;;;;;4143390;28;20102;-67
2023/03/30 10:15:19;;;;;;;2.63;1.77;;;9.30;58.00;;;;;;4142330;28;20037;-62
2023/03/30 10:17:23;;;;;;;2.77;1.80;;;9.50;58.20;;;;;;4142280;28;20038;-63
2023/03/30 10:19:27;;;;;;;2.13;1.50;;;9.60;58.00;;;;;;4142575;28;20030;-62
2023/03/30 10:21:37;;;;;;;5.60;2.83;;;9.40;56.90;;;;;;4143254;28;20079;-67
2023/03/30 10:23:43;;;;;;;3.00;1.80;;;9.40;57.30;;;;;;4142456;28;20046;-69
2023/03/30 10:25:48;;;;;;;4.53;1.67;;;9.40;57.20;;;;;;4142752;28;20080;-65
2023/03/30 10:27:52;;;;;;;2.10;1.30;;;9.40;57.20;;;;;;4142626;28;20564;-62
2023/03/30 10:29:53;;;;;;;3.77;2.03;;;9.50;56.60;;;;;;4142672;28;20549;-65
2023/03/30 10:32:13;;;;;;;7.47;1.73;;;9.50;56.40;;;;;;4142847;28;20073;-63
2023/03/30 10:34:35;;;;;;;2.95;1.70;;;9.60;56.10;;;;;;4143042;28;20030;-63
2023/03/30 10:36:39;;;;;;;3.27;1.50;;;9.70;55.30;;;;;;4142947;28;20433;-64
2023/03/30 10:38:42;;;;;;;2.13;1.63;;;9.80;56.20;;;;;;4142652;28;20038;-64
2023/03/30 10:40:44;;;;;;;1.87;1.20;;;9.90;56.20;;;;;;4142672;28;20045;-61
2023/03/30 10:42:52;;;;;;;5.10;1.87;;;9.90;55.60;;;;;;4142761;28;20042;-63
2023/03/30 10:44:57;;;;;;;3.93;1.53;;;9.90;55.40;;;;;;4142631;28;20030;-61
2023/03/30 10:47:28;;;;;;;2.67;1.20;;;9.90;54.70;;;;;;4142292;28;20042;-62
2023/03/30 10:49:49;;;;;;;2.90;1.77;;;9.80;54.50;;;;;;4142621;28;20045;-66
2023/03/30 10:52:14;;;;;;;3.75;1.55;;;9.80;54.40;;;;;;4142501;28;20046;-72